createdAt,value
2023-01-29T00:02:25.314Z,101357.17
2023-01-29T00:04:58.740Z,101356.18
2023-01-29T00:07:26.750Z,101356.66
2023-01-29T00:09:54.737Z,101358.04
2023-01-29T00:12:22.397Z,101347.81
2023-01-29T00:14:50.335Z,101350.74
2023-01-29T00:17:18.086Z,101344.37
2023-01-29T00:19:46.018Z,101341.67
2023-01-29T00:22:13.759Z,101343.27
2023-01-29T00:24:41.659Z,101330.36
2023-01-29T00:27:09.297Z,101322.91
2023-01-29T00:29:36.943Z,101323.60
2023-01-29T00:32:05.077Z,101319.75
2023-01-29T00:34:32.986Z,101312.07
2023-01-29T00:37:04.736Z,101310.77
2023-01-29T00:39:47.339Z,101299.73
2023-01-29T00:42:34.422Z,101293.05
2023-01-29T00:45:02.456Z,101283.56
2023-01-29T00:47:36.556Z,101278.15
2023-01-29T00:50:08.169Z,101284.80
2023-01-29T00:52:41.033Z,101291.70
2023-01-29T00:55:10.418Z,101291.23
2023-01-29T00:57:38.912Z,101287.73
2023-01-29T01:00:09.777Z,101284.25
2023-01-29T01:02:55.875Z,101276.95
2023-01-29T01:05:24.298Z,101274.63
2023-01-29T01:07:54.230Z,101271.34
2023-01-29T01:10:25.284Z,101273.45
2023-01-29T01:13:02.440Z,101283.35
2023-01-29T01:15:34.531Z,101281.23
2023-01-29T01:18:03.086Z,101279.16
2023-01-29T01:20:33.246Z,101278.51
2023-01-29T01:23:01.064Z,101279.01
2023-01-29T01:25:28.940Z,101276.23
2023-01-29T01:30:27.605Z,101272.86
2023-01-29T01:32:56.303Z,101268.77
2023-01-29T01:35:24.079Z,101258.95
2023-01-29T01:37:52.016Z,101257.77
2023-01-29T01:40:21.580Z,101258.81
2023-01-29T01:42:51.341Z,101252.08
2023-01-29T01:45:39.454Z,101256.13
2023-01-29T01:48:18.277Z,101259.36
2023-01-29T01:50:58.832Z,101262.35
2023-01-29T01:53:35.425Z,101258.52
2023-01-29T01:56:10.917Z,101252.40
2023-01-29T01:58:42.678Z,101253.61
2023-01-29T02:01:12.367Z,101256.98
2023-01-29T02:04:10.594Z,101258.23
2023-01-29T02:06:59.386Z,101261.31
2023-01-29T02:09:35.869Z,101261.98
2023-01-29T02:12:07.114Z,101259.59
2023-01-29T02:14:39.496Z,101263.04
2023-01-29T02:17:09.615Z,101269.48
2023-01-29T02:20:11.247Z,101266.10
2023-01-29T02:22:55.399Z,101264.80
2023-01-29T02:25:47.319Z,101258.94
2023-01-29T02:28:53.679Z,101260.27
2023-01-29T02:31:41.420Z,101257.75
2023-01-29T02:34:12.107Z,101248.89
2023-01-29T02:37:03.600Z,101248.08
2023-01-29T02:39:36.382Z,101245.83
2023-01-29T02:42:17.026Z,101244.34
2023-01-29T02:44:56.047Z,101252.73
2023-01-29T02:47:31.108Z,101254.74
2023-01-29T02:50:13.232Z,101252.17
2023-01-29T02:52:54.218Z,101254.27
2023-01-29T02:55:26.071Z,101249.55
2023-01-29T02:57:58.260Z,101254.01
2023-01-29T03:00:28.283Z,101259.26
2023-01-29T03:03:14.810Z,101254.89
2023-01-29T03:05:54.913Z,101253.99
2023-01-29T03:08:43.008Z,101256.33
2023-01-29T03:11:15.779Z,101254.98
2023-01-29T03:13:59.840Z,101256.27
2023-01-29T03:16:48.740Z,101259.38
2023-01-29T03:19:39.807Z,101255.17
2023-01-29T03:22:13.771Z,101252.39
2023-01-29T03:25:05.897Z,101264.11
2023-01-29T03:28:00.323Z,101265.66
2023-01-29T03:30:53.003Z,101259.98
2023-01-29T03:33:40.359Z,101254.14
2023-01-29T03:36:45.251Z,101243.27
2023-01-29T03:39:15.186Z,101245.54
2023-01-29T03:41:47.664Z,101245.59
2023-01-29T03:44:37.144Z,101244.51
2023-01-29T03:47:13.720Z,101239.81
2023-01-29T03:50:01.003Z,101242.27
2023-01-29T03:52:35.980Z,101239.52
2023-01-29T03:55:21.011Z,101241.38
2023-01-29T03:58:12.265Z,101238.85
2023-01-29T04:00:42.917Z,101234.09
2023-01-29T04:03:20.982Z,101239.60
2023-01-29T04:05:58.619Z,101233.98
2023-01-29T04:08:34.860Z,101236.31
2023-01-29T04:11:08.661Z,101237.23
2023-01-29T04:13:37.021Z,101238.17
2023-01-29T04:16:07.666Z,101242.02
2023-01-29T04:18:50.903Z,101239.65
2023-01-29T04:21:25.023Z,101232.76
2023-01-29T04:23:52.927Z,101228.61
2023-01-29T04:26:28.101Z,101225.03
2023-01-29T04:29:38.183Z,101211.52
2023-01-29T04:32:28.321Z,101207.74
2023-01-29T04:35:24.757Z,101205.48
2023-01-29T04:38:01.632Z,101199.83
2023-01-29T04:40:41.795Z,101194.54
2023-01-29T04:43:44.278Z,101191.84
2023-01-29T04:46:33.720Z,101190.23
2023-01-29T04:49:05.380Z,101191.95
2023-01-29T04:51:55.291Z,101192.33
2023-01-29T04:54:58.653Z,101185.67
2023-01-29T04:57:55.911Z,101180.94
2023-01-29T05:00:27.694Z,101190.43
2023-01-29T05:02:56.627Z,101182.13
2023-01-29T05:05:24.390Z,101178.37
2023-01-29T05:07:52.763Z,101177.77
2023-01-29T05:10:21.971Z,101171.00
2023-01-29T05:12:55.186Z,101160.69
2023-01-29T05:15:33.279Z,101156.72
2023-01-29T05:18:02.953Z,101164.23
2023-01-29T05:20:35.614Z,101162.90
2023-01-29T05:23:03.913Z,101153.63
2023-01-29T05:25:33.267Z,101150.73
2023-01-29T05:28:19.331Z,101148.54
2023-01-29T05:30:52.518Z,101145.83
2023-01-29T05:33:22.551Z,101144.77
2023-01-29T05:35:50.849Z,101146.08
2023-01-29T05:38:20.131Z,101144.95
2023-01-29T05:40:48.211Z,101146.98
2023-01-29T05:43:18.258Z,101150.27
2023-01-29T05:45:54.069Z,101144.70
2023-01-29T05:48:22.019Z,101136.88
2023-01-29T05:50:50.199Z,101135.36
2023-01-29T05:53:17.943Z,101133.60
2023-01-29T05:55:46.778Z,101130.48
2023-01-29T05:58:14.812Z,101137.67
2023-01-29T06:00:42.650Z,101143.66
2023-01-29T06:03:10.302Z,101149.18
2023-01-29T06:05:39.187Z,101148.70
2023-01-29T06:08:08.121Z,101146.48
2023-01-29T06:10:36.186Z,101149.75
2023-01-29T06:13:03.872Z,101151.40
2023-01-29T06:15:31.633Z,101151.57
2023-01-29T06:17:59.384Z,101147.88
2023-01-29T06:20:27.058Z,101147.66
2023-01-29T06:22:54.964Z,101155.98
2023-01-29T06:25:22.638Z,101159.48
2023-01-29T06:27:51.392Z,101158.89
2023-01-29T06:30:19.335Z,101156.08
2023-01-29T06:32:47.178Z,101158.79
2023-01-29T06:35:14.867Z,101158.81
2023-01-29T06:37:42.625Z,101162.59
2023-01-29T06:40:10.909Z,101162.81
2023-01-29T06:42:38.657Z,101169.02
2023-01-29T06:45:06.931Z,101173.91
2023-01-29T06:47:34.648Z,101180.83
2023-01-29T06:50:02.583Z,101191.55
2023-01-29T06:52:30.609Z,101191.11
2023-01-29T06:54:58.352Z,101189.67
2023-01-29T06:57:29.214Z,101194.14
2023-01-29T06:59:56.878Z,101207.15
2023-01-29T07:02:24.631Z,101212.85
2023-01-29T07:04:52.655Z,101216.10
2023-01-29T07:07:20.304Z,101213.56
2023-01-29T07:09:48.108Z,101212.71
2023-01-29T07:12:16.018Z,101212.80
2023-01-29T07:14:43.987Z,101220.99
2023-01-29T07:17:11.712Z,101227.91
2023-01-29T07:19:39.398Z,101226.11
2023-01-29T07:22:07.134Z,101219.92
2023-01-29T07:24:34.891Z,101214.20
2023-01-29T07:27:02.720Z,101213.08
2023-01-29T07:29:30.439Z,101218.89
2023-01-29T07:31:58.362Z,101219.05
2023-01-29T07:34:26.504Z,101221.36
2023-01-29T07:36:56.816Z,101224.74
2023-01-29T07:39:24.816Z,101233.95
2023-01-29T07:41:52.596Z,101242.16
2023-01-29T07:44:23.456Z,101237.48
2023-01-29T07:46:51.139Z,101221.05
2023-01-29T07:49:18.955Z,101208.30
2023-01-29T07:51:46.679Z,101215.08
2023-01-29T07:54:14.625Z,101209.04
2023-01-29T07:56:42.414Z,101199.39
2023-01-29T07:59:10.272Z,101186.58
2023-01-29T08:01:37.951Z,101182.75
2023-01-29T08:04:05.673Z,101184.79
2023-01-29T08:06:33.347Z,101175.40
2023-01-29T08:09:01.062Z,101175.60
2023-01-29T08:11:28.726Z,101174.60
2023-01-29T08:13:57.375Z,101172.46
2023-01-29T08:16:25.143Z,101171.90
2023-01-29T08:18:52.784Z,101173.46
2023-01-29T08:21:20.447Z,101165.80
2023-01-29T08:23:48.165Z,101158.02
2023-01-29T08:26:15.924Z,101147.22
2023-01-29T08:28:43.683Z,101144.39
2023-01-29T08:31:16.127Z,101138.20
2023-01-29T08:33:43.975Z,101131.58
2023-01-29T08:36:11.713Z,101125.98
2023-01-29T08:38:39.674Z,101119.33
2023-01-29T08:41:07.782Z,101121.29
2023-01-29T08:43:38.705Z,101123.61
2023-01-29T08:46:07.551Z,101125.47
2023-01-29T08:48:35.567Z,101127.80
2023-01-29T08:51:04.471Z,101125.19
2023-01-29T08:53:32.996Z,101129.80
2023-01-29T08:56:00.847Z,101128.27
2023-01-29T08:58:28.596Z,101127.91
2023-01-29T14:02:35.494Z,100820.30
2023-01-29T14:05:29.827Z,100812.48
2023-01-29T14:08:02.349Z,100810.25
2023-01-29T14:10:30.989Z,100809.48
2023-01-29T14:13:04.941Z,100803.80
2023-01-29T14:15:36.867Z,100799.83
2023-01-29T14:18:05.064Z,100803.33
2023-01-29T14:20:45.741Z,100806.38
2023-01-29T14:23:27.561Z,100815.09
2023-01-29T14:25:55.891Z,100812.52
2023-01-29T14:28:26.980Z,100818.10
2023-01-29T14:30:55.161Z,100822.61
2023-01-29T14:33:32.695Z,100821.00
2023-01-29T14:36:05.278Z,100816.36
2023-01-29T14:38:33.687Z,100815.63
2023-01-29T14:41:04.594Z,100811.92
2023-01-29T14:43:32.713Z,100809.75
2023-01-29T14:46:34.500Z,100804.25
2023-01-29T14:49:02.809Z,100805.61
2023-01-29T14:51:37.700Z,100806.70
2023-01-29T14:54:21.637Z,100802.38
2023-01-29T14:57:01.619Z,100804.58
2023-01-29T14:59:39.580Z,100804.05
2023-01-29T15:02:41.011Z,100797.70
2023-01-29T15:05:18.679Z,100802.83
2023-01-29T15:07:51.877Z,100803.73
2023-01-29T15:10:23.721Z,100809.38
2023-01-29T15:13:03.530Z,100805.65
2023-01-29T15:15:44.688Z,100808.35
2023-01-29T15:18:17.432Z,100810.27
2023-01-29T15:20:45.283Z,100805.21
2023-01-29T15:23:31.004Z,100808.59
2023-01-29T15:26:04.202Z,100809.50
2023-01-29T15:28:34.170Z,100813.51
2023-01-29T15:31:05.372Z,100818.70
2023-01-29T15:33:34.204Z,100815.59
2023-01-29T15:36:07.998Z,100811.65
2023-01-29T15:38:36.081Z,100813.64
2023-01-29T15:41:16.957Z,100811.38
2023-01-29T15:43:47.960Z,100812.81
2023-01-29T15:46:23.950Z,100808.21
2023-01-29T15:48:53.685Z,100808.00
2023-01-29T15:51:24.319Z,100801.96
2023-01-29T15:53:54.699Z,100810.11
2023-01-29T15:56:31.405Z,100813.01
2023-01-29T15:59:00.779Z,100810.36
2023-01-29T16:01:29.439Z,100806.47
2023-01-29T16:04:02.366Z,100806.71
2023-01-29T16:06:35.716Z,100800.13
2023-01-29T16:09:04.646Z,100798.79
2023-01-29T16:11:33.627Z,100802.03
2023-01-29T16:14:02.165Z,100795.57
2023-01-29T16:16:30.097Z,100791.55
2023-01-29T16:19:00.716Z,100785.93
2023-01-29T16:21:33.211Z,100792.02
2023-01-29T16:24:03.172Z,100787.95
2023-01-29T16:26:36.569Z,100786.48
2023-01-29T16:29:10.032Z,100785.83
2023-01-29T16:31:38.887Z,100785.13
2023-01-29T16:34:25.872Z,100782.63
2023-01-29T16:36:54.723Z,100781.35
2023-01-29T16:39:29.959Z,100779.80
2023-01-29T16:42:10.774Z,100782.83
2023-01-29T16:44:46.295Z,100786.97
2023-01-29T16:47:25.968Z,100783.37
2023-01-29T16:49:56.004Z,100783.65
2023-01-29T16:52:27.898Z,100783.89
2023-01-29T16:55:00.645Z,100784.43
2023-01-29T16:57:33.565Z,100779.58
2023-01-29T17:00:04.922Z,100781.21
2023-01-29T17:02:37.600Z,100778.33
2023-01-29T17:05:08.627Z,100775.09
2023-01-29T17:07:36.834Z,100772.05
2023-01-29T17:10:06.254Z,100763.65
2023-01-29T17:12:34.136Z,100759.84
2023-01-29T17:15:25.250Z,100751.51
2023-01-29T17:17:52.920Z,100745.48
2023-01-29T17:20:20.833Z,100740.31
2023-01-29T17:22:48.528Z,100738.80
2023-01-29T17:25:17.344Z,100736.27
2023-01-29T17:27:51.601Z,100738.80
2023-01-29T17:30:21.692Z,100741.81
2023-01-29T17:32:49.477Z,100740.36
2023-01-29T17:35:18.192Z,100737.44
2023-01-29T17:37:46.384Z,100735.61
2023-01-29T17:40:34.483Z,100736.30
2023-01-29T17:43:02.275Z,100736.36
2023-01-29T17:45:30.030Z,100733.52
2023-01-29T17:47:58.932Z,100733.87
2023-01-29T17:50:28.432Z,100725.74
2023-01-29T17:52:56.146Z,100725.68
2023-01-29T17:55:24.128Z,100719.76
2023-01-29T17:57:52.632Z,100713.26
2023-01-29T18:00:24.428Z,100705.31
2023-01-29T18:02:52.165Z,100704.68
2023-01-29T18:05:20.441Z,100700.12
2023-01-29T18:07:48.523Z,100702.13
2023-01-29T18:10:18.853Z,100695.62
2023-01-29T18:12:47.061Z,100690.98
2023-01-29T18:15:15.571Z,100686.16
2023-01-29T18:17:44.726Z,100690.29
2023-01-29T18:20:21.875Z,100690.84
2023-01-29T18:22:50.105Z,100692.81
2023-01-29T18:25:20.605Z,100679.52
2023-01-29T18:27:48.705Z,100682.04
2023-01-29T18:30:16.888Z,100677.75
2023-01-29T18:32:44.657Z,100677.63
2023-01-29T18:35:12.605Z,100672.73
2023-01-29T18:37:40.337Z,100673.52
2023-01-29T18:40:13.834Z,100661.39
2023-01-29T18:42:42.021Z,100657.86
2023-01-29T18:45:10.206Z,100653.83
2023-01-29T18:47:38.452Z,100652.82
2023-01-29T18:50:06.869Z,100649.07
2023-01-29T18:52:34.784Z,100646.27
2023-01-29T18:55:02.525Z,100644.24
2023-01-29T18:58:27.381Z,100647.45
2023-01-29T19:00:18.354Z,100646.21
2023-01-29T19:02:46.821Z,100643.86
2023-01-29T19:05:16.876Z,100644.70
2023-01-29T19:07:45.156Z,100642.83
2023-01-29T19:10:12.992Z,100644.42
2023-01-29T19:12:42.323Z,100642.14
2023-01-29T19:15:11.385Z,100638.07
2023-01-29T19:17:39.355Z,100639.60
2023-01-29T19:20:09.956Z,100638.41
2023-01-29T19:22:37.733Z,100637.36
2023-01-29T19:25:06.142Z,100631.36
2023-01-29T19:27:34.000Z,100632.61
2023-01-29T19:30:02.718Z,100624.59
2023-01-29T19:32:30.746Z,100624.45
2023-01-29T19:34:58.616Z,100618.63
2023-01-29T19:37:26.264Z,100609.52
2023-01-29T19:39:53.984Z,100603.45
2023-01-29T19:42:21.944Z,100599.86
2023-01-29T19:44:51.141Z,100589.65
2023-01-29T19:47:21.026Z,100583.90
2023-01-29T19:49:48.824Z,100575.48
2023-01-29T19:52:49.850Z,100576.80
2023-01-29T19:55:21.284Z,100576.88
2023-01-29T19:57:52.776Z,100575.61
2023-01-29T20:00:21.537Z,100576.48
2023-01-29T20:02:52.197Z,100574.88
2023-01-29T20:05:20.494Z,100572.23
2023-01-29T20:07:49.745Z,100573.02
2023-01-29T20:10:18.135Z,100568.95
2023-01-29T20:12:46.313Z,100571.85
2023-01-29T20:15:14.721Z,100572.85
2023-01-29T20:17:45.434Z,100573.11
2023-01-29T20:20:13.187Z,100571.58
2023-01-29T20:22:40.860Z,100567.36
2023-01-29T20:25:09.096Z,100564.80
2023-01-29T20:27:36.830Z,100560.39
2023-01-29T20:30:05.040Z,100560.11
2023-01-29T20:32:32.942Z,100559.91
2023-01-29T20:35:00.762Z,100560.23
2023-01-29T20:37:28.479Z,100559.40
2023-01-29T20:39:56.328Z,100557.67
2023-01-29T20:42:24.909Z,100551.56
2023-01-29T20:44:53.383Z,100553.45
2023-01-29T20:47:21.321Z,100549.55
2023-01-29T20:49:49.822Z,100549.61
2023-01-29T20:52:18.228Z,100544.30
2023-01-29T20:54:46.383Z,100543.45
2023-01-29T20:57:14.117Z,100540.08
2023-01-29T20:59:41.816Z,100537.42
2023-01-29T21:02:10.835Z,100529.84
2023-01-29T21:04:38.629Z,100530.09
2023-01-29T21:07:06.264Z,100526.80
2023-01-29T21:09:33.958Z,100527.79
2023-01-29T21:12:01.751Z,100520.19
2023-01-29T21:14:29.762Z,100517.02
2023-01-29T21:16:57.702Z,100521.30
2023-01-29T21:19:25.704Z,100520.45
2023-01-29T21:21:58.124Z,100519.10
2023-01-29T21:24:26.402Z,100512.02
2023-01-29T21:26:54.709Z,100507.02
2023-01-29T21:29:22.779Z,100502.18
2023-01-29T21:31:50.586Z,100503.98
2023-01-29T21:34:18.288Z,100497.06
2023-01-29T21:36:47.342Z,100490.91
2023-01-29T21:39:19.813Z,100494.00
2023-01-29T21:42:08.517Z,100485.85
2023-01-29T21:44:37.107Z,100481.45
2023-01-29T21:47:14.442Z,100474.81
2023-01-29T21:49:43.622Z,100474.27
2023-01-29T21:52:12.749Z,100473.50
2023-01-29T21:54:41.034Z,100468.02
2023-01-29T21:57:12.828Z,100468.40
2023-01-29T21:59:40.537Z,100465.33
2023-01-29T22:02:14.080Z,100461.14
2023-01-29T22:04:42.601Z,100458.92
2023-01-29T22:07:11.873Z,100465.08
2023-01-29T22:09:40.043Z,100462.49
2023-01-29T22:12:08.434Z,100461.19
2023-01-29T22:14:36.133Z,100451.90
2023-01-29T22:17:04.053Z,100443.98
2023-01-29T22:19:31.835Z,100438.42
2023-01-29T22:21:59.970Z,100432.73
2023-01-29T22:24:27.659Z,100424.73
2023-01-29T22:26:55.394Z,100416.65
2023-01-29T22:29:23.259Z,100415.90
2023-01-29T22:31:50.945Z,100404.84
2023-01-29T22:34:18.602Z,100401.61
2023-01-29T22:36:46.649Z,100397.52
2023-01-29T22:39:14.391Z,100388.40
2023-01-29T22:41:42.066Z,100379.33
2023-01-29T22:44:09.900Z,100367.15
2023-01-29T22:46:37.622Z,100359.23
2023-01-29T22:49:05.430Z,100348.77
2023-01-29T22:51:33.125Z,100345.52
2023-01-29T22:54:01.460Z,100343.64
2023-01-29T22:56:32.272Z,100343.76
2023-01-29T22:59:00.798Z,100335.84
2023-01-29T23:01:30.674Z,100329.75
2023-01-29T23:03:58.449Z,100319.79
2023-01-29T23:06:26.448Z,100315.19
2023-01-29T23:08:54.125Z,100317.19
2023-01-29T23:11:23.656Z,100315.09
2023-01-29T23:13:53.481Z,100306.45
2023-01-29T23:16:25.345Z,100301.41
2023-01-29T23:18:55.267Z,100297.52
2023-01-29T23:21:25.040Z,100285.28
2023-01-29T23:23:55.376Z,100282.91
2023-01-29T23:26:41.989Z,100278.64
2023-01-29T23:29:10.128Z,100266.27
2023-01-29T23:31:38.128Z,100261.79
2023-01-29T23:34:05.947Z,100256.85
2023-01-29T23:36:33.675Z,100248.40
2023-01-29T23:39:01.400Z,100235.90
2023-01-29T23:41:29.064Z,100235.30
2023-01-29T23:43:56.800Z,100225.03
2023-01-29T23:46:24.596Z,100214.45
2023-01-29T23:48:52.608Z,100217.82
2023-01-29T23:51:22.123Z,100214.98
2023-01-29T23:53:49.863Z,100213.52
2023-01-29T23:56:17.885Z,100206.06
2023-01-29T23:58:46.097Z,100200.46
